Nicholas Roberts

Olheiro-Chefe - Southampton
22 Fev 2027
Segunda-feira
Processo

Personalidade

Adaptabilidade (10) Ambição (4) Controvérsia (14) Lealdade (11) Pressão (1) Profissionalismo (15) Espírito Esportivo (12) Temperamento (19)

Perfil

Estilo de Treinamento Democrático
Licença Continental Pro
Determinação 5
Gestão de Pessoas 13
Motivação 7
Disciplina 9
Satisfação no Trabalho
50%
Fadiga
0%
Função Olheiro-Chefe
Salário 92.7K p/s
Contrato 14.03.2029

Desempenho

Comportamento Normal
Eficácia do Treinamento
15%
Desenvolvimento do Jogador
25%
Prevenção de Lesões
65%
Implementação Tática
35%

Eventos Recentes

Avaliou um jogador agora
Participou de uma reunião de recrutamento agora
Recomendou um alvo de transferência agora
Recomendou um alvo de transferência agora
Participou de uma reunião de recrutamento agora
Avaliou um jogador agora
Avaliou um jogador agora
Avaliou um jogador 7d atrás

Monitorando agora

104
Jogador Clube Status Habilidade Confiança Observado Última observação Último voto
Maeson King Oxford United Ativo 108 / 120 40% 3 21.02.2027 -
Leandro Martins Benfica Ativo 92 / 97 40% 2 21.02.2027 -
Simone Kosijer Triestina Ativo 87 / 102 40% 2 21.02.2027 -
Tiago Freitas Benfica Ativo 100 / 122 40% 3 20.02.2027 -
Eivind Helland Bologna Ativo 129 / 142 40% 3 20.02.2027 -
Juan Rodríguez Cagliari Ativo 113 / 135 40% 2 20.02.2027 -
Ignacio Perruzzi San Lorenzo Ativo 119 / 122 40% 6 18.02.2027 -
Samuele di Benedetto Charlton Athletic Ativo 106 / 123 40% 6 18.02.2027 -
Elie N'Gatta Sochaux Ativo 94 / 88 40% 5 18.02.2027 -
Federico Valentini Forli Ativo 94 / 100 40% 1 17.02.2027 -
Jakub Adkonis Lechia Ativo 102 / 105 40% 1 15.02.2027 -
Godwin Oham Warri Wolves Ativo 80 / 101 40% 6 14.02.2027 -
Maldini Kacurri Grimsby Town Ativo 87 / 102 40% 3 14.02.2027 -
Gonçalo Oliveira Benfica Ativo 116 / 110 40% 4 14.02.2027 -
Luther Ngcobo Ajax Cape Town Ativo 98 / 103 40% 8 13.02.2027 -
Riyad Idrissi Cagliari Ativo 119 / 118 40% 2 13.02.2027 -
Théo Hansen Hobro Ativo 78 / 79 40% 1 12.02.2027 -
Joseph Jones Kryvbas Ativo 97 / 89 40% 1 12.02.2027 -
Augusto Bando Ascoli Ativo 102 / 102 40% 1 12.02.2027 -
Kian Best Tondela Ativo 101 / 107 40% 1 11.02.2027 -
Mathis Amougou RC Strasbourg Ativo 114 / 126 40% 1 11.02.2027 -
Saël Kumbedi VfL Wolfsburg Ativo 128 / 127 40% 5 10.02.2027 -
Martim Cunha Porto Ativo 94 / 114 40% 3 10.02.2027 -
Simphiwe Selepe Orlando Pirates Ativo 124 / 129 40% 4 07.02.2027 -
Honest Ahanor Atalanta Ativo 133 / 142 40% 3 05.02.2027 -
Ezechiel Banzuzi RB Leipzig Ativo 126 / 137 40% 1 05.02.2027 -
Luca Barani Forli Ativo 89 / 105 40% 1 05.02.2027 -
Jaydee Canvot Crystal Palace Ativo 124 / 143 40% 7 01.02.2027 -
Surprise Manthosi Polokwane City Ativo 78 / 79 40% 5 01.02.2027 -
Sabil Hansen Randers Ativo 108 / 117 40% 2 01.02.2027 -
Adam Aznou Everton Ativo 132 / 129 40% 2 31.01.2027 -
Dayann Methalie Sunderland Ativo 125 / 128 40% 8 30.01.2027 -
Enzo Cardozo Almirante Brown Ativo 95 / 119 40% 3 29.01.2027 -
Ivan Shilenok Zenit Ativo 84 / 85 40% 4 23.01.2027 -
Joel Godoy Sevilla Ativo 105 / 115 40% 1 22.01.2027 -
Matthew Litherland Blackburn Rovers Ativo 102 / 115 40% 1 22.01.2027 -
Charlie Webster Burton Albion Ativo 101 / 114 65% 1 18.01.2027 Aprovar
Isaac Smith Leganés Ativo 99 / 100 40% 1 16.01.2027 -
Obed Vargas Atlético Madrid Ativo 115 / 138 40% 4 15.01.2027 -
Bradley de Jesus Tondela Ativo 84 / 97 40% 3 15.01.2027 -
Cemran Dansin Orlando Pirates Ativo 123 / 111 40% 4 12.01.2027 -
Jordan Roberts Stevenage Perdido 106 / 120 65% 1 07.01.2027 -
Jair Nottingham Forest Ativo 131 / 132 40% 3 03.01.2027 -
Luke Molyneux Doncaster Rovers Ativo 114 / 110 65% 1 01.01.2027 Aprovar
Efe Lucky Djoliba Ativo 106 / 101 40% 2 29.12.2026 -
Juan Pablo De la Reta Maipú Ativo 119 / 112 40% 2 29.12.2026 Mais informações
Alex Tóth Bournemouth Rejeitado 125 / 116 40% 5 25.12.2026 Rejeitar
Noël Atom Elche Ativo 105 / 101 40% 5 25.12.2026 -
Viery Fiorentina Ativo 113 / 134 40% 2 23.12.2026 -
Elias Lenz Huesca Ativo 81 / 93 40% 1 22.12.2026 -
João Muniz Sporting CP Ativo 109 / 113 40% 1 21.12.2026 -
Marius Courcoul Angers SCO Ativo 107 / 121 40% 1 21.12.2026 -
Kieran Chandler Minnesota United FC Ativo 81 / 86 40% 2 17.12.2026 -
Andrija Bulatović RC Lens Rejeitado 129 / 137 40% 3 16.12.2026 Rejeitar
Santiago Fernández Talleres Ativo 113 / 126 40% 5 14.12.2026 -
Mauricio Amaro Atlanta United FC Rejeitado 122 / 124 40% 7 10.12.2026 Rejeitar
Morrison Agyemang Charlotte Football Club Ativo 106 / 105 40% 3 10.12.2026 -
Eitan Cohen Maccabi Petach Tikva Ativo 88 / 107 40% 1 30.11.2026 -
Mohamed Cherif Haïdara SonderjyskE Ativo 112 / 115 40% 1 25.11.2026 -
Juho Lähteenmäki FC Nordsjaelland Ativo 124 / 131 40% 1 23.11.2026 -
Petar Antolković Sesvete Ativo 91 / 96 40% 1 23.11.2026 -
Eyad El Askalany Rostov Ativo 87 / 98 40% 1 17.11.2026 -
Julián Bazán New York Red Bulls Ativo 100 / 102 40% 3 03.11.2026 -
Axel Tape Bayer Leverkusen Ativo 116 / 127 40% 1 03.11.2026 -
Arjan Malić Sturm Graz Ativo 121 / 130 40% 2 19.10.2026 -
Nikita Stoinov Dinamo Bucharest Ativo 124 / 118 40% 1 19.10.2026 -
Justin-Noël Kalumba Mallorca Ativo 108 / 119 40% 1 18.10.2026 -
Luther Phiri SuperSport United Ativo 109 / 129 40% 4 17.10.2026 -
Yaimar Medina Racing Genk Ativo 123 / 119 40% 1 16.10.2026 -
Elías Báez Atlanta United FC Ativo 131 / 118 40% 4 11.10.2026 -
Pedro Bravo FC Midtjylland Ativo 107 / 118 40% 1 11.10.2026 -
Joaquin Seys Club Brugge Ativo 119 / 132 40% 2 09.10.2026 -
Lucas Richarte Temperley Ativo 114 / 96 40% 1 08.10.2026 -
Facundo Di Biasi Gimnasia La Plata Ativo 107 / 128 40% 1 08.10.2026 -
Matías Gómez Celta Ativo 116 / 118 40% 1 07.10.2026 -
Nahuel Herrera Penarol Ativo 133 / 129 40% 3 05.10.2026 -
Sergi Domínguez Dinamo Zagreb Ativo 118 / 128 40% 1 05.10.2026 -
Aiden Hezarkhani Real Salt Lake Ativo 87 / 84 40% 1 16.09.2026 -
Samuel Lucero Defensa y Justicia Ativo 109 / 124 40% 2 15.09.2026 -
Mbekezeli Mbokazi Chicago Fire Ativo 109 / 120 40% 4 12.09.2026 -
Pedro Lima Wolverhampton Ativo 105 / 128 40% 1 10.09.2026 -
Nacer Tielemans Mouscron Ativo 125 / 129 40% 1 09.09.2026 -
Eliás Montiel Pachuca Ativo 133 / 143 40% 2 04.09.2026 -
Marvin Kaleta Rotherham United Ativo 113 / 109 40% 1 02.09.2026 -
Stuart Hawkins Seattle Sounders Ativo 90 / 125 40% 3 31.08.2026 -
Kaick FC Dallas Ativo 105 / 97 40% 1 26.08.2026 -
Zach Mitchell Charlton Athletic Ativo 100 / 90 40% 1 25.08.2026 -
Sergio Quintero La Equidad Ativo 144 / 137 40% 1 25.08.2026 -
José Pachuca Puebla Ativo 104 / 118 40% 2 24.08.2026 -
Ruairi McConville Norwich City Ativo 119 / 116 40% 1 23.08.2026 -
Santiago Sosa Yung Defensa y Justicia Ativo 128 / 138 40% 1 17.08.2026 -
Lucas Agazzi Defensor Sporting Ativo 125 / 136 40% 2 16.08.2026 -
Pedro Soma San Diego Football Club Ativo 99 / 116 40% 2 14.08.2026 -
Leonardo Barroso Chicago Fire Ativo 92 / 105 40% 1 14.08.2026 -
Ronald Donkor New York Red Bulls Ativo 87 / 107 40% 1 14.08.2026 -
Harrison Armstrong Everton Ativo 128 / 120 40% 1 13.08.2026 -
Brooklyn Raines New England Revolution Ativo 106 / 135 40% 2 12.08.2026 -
Sergio Oregel Chicago Fire Ativo 102 / 105 40% 1 12.08.2026 -
Emmanuel Mathias Ikorodu City Ativo 105 / 91 40% 1 12.08.2026 -
Nolan Norris FC Dallas Ativo 86 / 106 40% 1 11.08.2026 -
Ezekiel Kwame Alladoh Philadelphia Union Ativo 109 / 105 40% 2 03.08.2026 -
Bruno Caicedo Vancouver Whitecaps Ativo 116 / 106 40% 1 03.08.2026 -
Mohammed Sofo New York Red Bulls Ativo 112 / 100 40% 1 01.08.2026 -
Kimani Stewart-Baynes Colorado Rapids Ativo 85 / 106 40% 1 01.08.2026 -